createdAt,value
2023-10-20T00:00:30.988Z,959.89
2023-10-20T00:01:30.407Z,959.83
2023-10-20T00:02:31.213Z,959.81
2023-10-20T00:03:30.433Z,959.85
2023-10-20T00:04:30.422Z,959.87
2023-10-20T00:05:30.434Z,959.87
2023-10-20T00:06:31.079Z,959.79
2023-10-20T00:07:30.301Z,959.75
2023-10-20T00:08:30.339Z,959.73
2023-10-20T00:09:30.282Z,959.73
2023-10-20T00:10:31.011Z,959.71
2023-10-20T00:11:31.123Z,959.67
2023-10-20T00:12:30.655Z,959.67
2023-10-20T00:13:31.001Z,959.67
2023-10-20T00:14:31.158Z,959.67
2023-10-20T00:15:30.201Z,959.67
2023-10-20T00:16:30.317Z,959.65
2023-10-20T00:17:31.044Z,959.61
2023-10-20T00:18:30.312Z,959.59
2023-10-20T00:19:30.134Z,959.59
2023-10-20T00:20:30.889Z,959.59
2023-10-20T00:21:31.503Z,959.57
2023-10-20T00:22:30.816Z,959.55
2023-10-20T00:23:30.880Z,959.53
2023-10-20T00:24:30.170Z,959.51
2023-10-20T00:25:30.802Z,959.53
2023-10-20T00:26:30.112Z,959.57
2023-10-20T00:27:30.029Z,959.57
2023-10-20T00:28:30.756Z,959.53
2023-10-20T00:29:30.805Z,959.51
2023-10-20T00:30:31.385Z,959.47
2023-10-20T00:31:31.431Z,959.44
2023-10-20T00:32:30.057Z,959.42
2023-10-20T00:33:30.682Z,959.44
2023-10-20T00:34:31.508Z,959.46
2023-10-20T00:35:29.932Z,959.47
2023-10-20T00:36:30.618Z,959.47
2023-10-20T00:37:30.619Z,959.46
2023-10-20T00:38:30.689Z,959.42
2023-10-20T00:39:29.855Z,959.38
2023-10-20T00:40:29.834Z,959.36
2023-10-20T00:41:30.620Z,959.36
2023-10-20T00:42:29.805Z,959.36
2023-10-20T00:43:29.812Z,959.32
2023-10-20T00:44:32.087Z,959.30
2023-10-20T00:45:29.821Z,959.28
2023-10-20T00:46:30.496Z,959.30
2023-10-20T00:47:30.546Z,959.28
2023-10-20T00:48:29.817Z,959.28
2023-10-20T00:49:29.909Z,959.30
2023-10-20T00:50:31.178Z,959.30
2023-10-20T00:51:29.800Z,959.30
2023-10-20T00:52:30.416Z,959.30
2023-10-20T00:53:29.752Z,959.28
2023-10-20T00:54:29.664Z,959.24
2023-10-20T00:55:30.393Z,959.16
2023-10-20T00:56:29.731Z,959.14
2023-10-20T00:57:30.338Z,959.10
2023-10-20T00:58:29.589Z,959.08
2023-10-20T00:59:29.608Z,959.06
2023-10-20T01:00:29.570Z,959.04
2023-10-20T01:01:29.571Z,959.02
2023-10-20T01:02:29.965Z,958.98
2023-10-20T01:03:29.602Z,958.93
2023-10-20T01:04:29.498Z,958.89
2023-10-20T01:05:29.931Z,958.83
2023-10-20T01:06:29.479Z,958.77
2023-10-20T01:07:29.460Z,958.73
2023-10-20T01:08:30.930Z,958.71
2023-10-20T01:09:29.447Z,958.71
2023-10-20T01:10:30.840Z,958.73
2023-10-20T01:11:30.186Z,958.75
2023-10-20T01:12:29.388Z,958.77
2023-10-20T01:13:29.859Z,958.77
2023-10-20T01:14:29.883Z,958.81
2023-10-20T01:15:29.371Z,958.83
2023-10-20T01:16:30.090Z,958.79
2023-10-20T01:17:29.943Z,958.71
2023-10-20T01:18:29.898Z,958.69
2023-10-20T01:19:30.020Z,958.71
2023-10-20T01:20:29.308Z,958.69
2023-10-20T01:21:29.914Z,958.67
2023-10-20T01:22:29.928Z,958.61
2023-10-20T01:23:29.947Z,958.53
2023-10-20T01:24:29.965Z,958.42
2023-10-20T01:25:29.969Z,958.38
2023-10-20T01:26:30.021Z,958.38
2023-10-20T01:27:29.583Z,958.36
2023-10-20T01:28:29.173Z,958.34
2023-10-20T01:29:29.230Z,958.30
2023-10-20T01:30:29.141Z,958.30
2023-10-20T01:31:29.152Z,958.28
2023-10-20T01:32:29.935Z,958.20
2023-10-20T01:33:29.920Z,958.18
2023-10-20T01:34:30.586Z,958.18
2023-10-20T01:35:29.952Z,958.18
2023-10-20T01:36:29.060Z,958.24
2023-10-20T01:37:29.076Z,958.22
2023-10-20T01:38:29.069Z,958.22
2023-10-20T01:39:29.026Z,958.20
2023-10-20T01:40:29.749Z,958.16
2023-10-20T01:41:29.030Z,958.12
2023-10-20T01:42:28.986Z,958.04
2023-10-20T01:43:29.718Z,958.00
2023-10-20T01:44:28.995Z,957.96
2023-10-20T01:45:30.341Z,957.94
2023-10-20T01:46:28.957Z,957.96
2023-10-20T01:47:29.070Z,957.98
2023-10-20T01:48:29.691Z,957.94
2023-10-20T01:49:29.197Z,957.89
2023-10-20T01:50:28.877Z,957.87
2023-10-20T01:51:30.268Z,957.81
2023-10-20T01:52:28.836Z,957.79
2023-10-20T01:53:28.922Z,957.79
2023-10-20T01:54:28.815Z,957.77
2023-10-20T01:55:28.809Z,957.75
2023-10-20T01:56:29.625Z,957.69
2023-10-20T01:57:28.779Z,957.57
2023-10-20T01:58:28.768Z,957.55
2023-10-20T01:59:29.512Z,957.44
2023-10-20T02:00:28.724Z,957.36
2023-10-20T02:01:29.562Z,957.34
2023-10-20T02:02:28.856Z,957.32
2023-10-20T02:03:28.858Z,957.32
2023-10-20T02:04:29.408Z,957.32
2023-10-20T02:05:28.697Z,957.32
2023-10-20T02:06:30.074Z,957.34
2023-10-20T02:07:29.113Z,957.34
2023-10-20T02:08:28.662Z,957.34
2023-10-20T02:09:28.920Z,957.36
2023-10-20T02:10:28.644Z,957.38
2023-10-20T02:11:28.605Z,957.36
2023-10-20T02:12:29.163Z,957.34
2023-10-20T02:13:29.171Z,957.30
2023-10-20T02:14:29.208Z,957.26
2023-10-20T02:15:29.261Z,957.24
2023-10-20T02:16:28.525Z,957.22
2023-10-20T02:17:28.561Z,957.16
2023-10-20T02:18:28.645Z,957.14
2023-10-20T02:19:28.590Z,957.08
2023-10-20T02:20:29.271Z,957.00
2023-10-20T02:21:30.391Z,956.97
2023-10-20T02:22:28.712Z,956.93
2023-10-20T02:23:29.188Z,956.91
2023-10-20T02:24:28.830Z,956.89
2023-10-20T02:25:28.834Z,956.83
2023-10-20T02:26:28.874Z,956.83
2023-10-20T02:27:29.074Z,956.85
2023-10-20T02:28:28.451Z,956.81
2023-10-20T02:29:28.991Z,956.79
2023-10-20T02:30:28.309Z,956.77
2023-10-20T02:31:28.936Z,956.79
2023-10-20T02:32:29.120Z,956.77
2023-10-20T02:33:30.227Z,956.75
2023-10-20T02:34:28.255Z,956.75
2023-10-20T02:35:30.244Z,956.67
2023-10-20T02:36:29.651Z,956.67
2023-10-20T02:37:28.220Z,956.67
2023-10-20T02:38:28.240Z,956.67
2023-10-20T02:39:28.929Z,956.59
2023-10-20T02:40:28.186Z,956.57
2023-10-20T02:41:28.894Z,956.57
2023-10-20T02:42:28.162Z,956.51
2023-10-20T02:43:28.157Z,956.49
2023-10-20T02:44:28.908Z,956.44
2023-10-20T02:45:30.071Z,956.40
2023-10-20T02:46:28.147Z,956.34
2023-10-20T02:47:28.124Z,956.34
2023-10-20T02:48:28.111Z,956.34
2023-10-20T02:49:28.066Z,956.32
2023-10-20T02:50:28.117Z,956.28
2023-10-20T02:51:28.399Z,956.24
2023-10-20T02:52:28.000Z,956.22
2023-10-20T02:53:28.038Z,956.16
2023-10-20T02:54:29.397Z,956.16
2023-10-20T02:55:28.155Z,956.16
2023-10-20T02:56:27.976Z,956.14
2023-10-20T02:57:29.889Z,956.12
2023-10-20T02:58:27.916Z,956.06
2023-10-20T02:59:29.347Z,955.97
2023-10-20T03:00:27.903Z,955.91
2023-10-20T03:01:27.957Z,955.89
2023-10-20T03:02:28.106Z,955.83
2023-10-20T03:03:29.967Z,955.81
2023-10-20T03:04:28.021Z,955.81
2023-10-20T03:05:27.868Z,955.81
2023-10-20T03:06:27.809Z,955.81
2023-10-20T03:07:27.805Z,955.81
2023-10-20T03:08:27.824Z,955.81
2023-10-20T03:09:28.493Z,955.79
2023-10-20T03:10:27.761Z,955.79
2023-10-20T03:11:27.769Z,955.79
2023-10-20T03:12:27.732Z,955.79
2023-10-20T03:13:27.724Z,955.77
2023-10-20T03:14:27.730Z,955.77
2023-10-20T03:15:27.853Z,955.73
2023-10-20T03:16:28.023Z,955.69
2023-10-20T03:17:28.030Z,955.69
2023-10-20T03:18:27.702Z,955.65
2023-10-20T03:19:27.640Z,955.61
2023-10-20T03:20:27.676Z,955.55
2023-10-20T03:21:27.913Z,955.51
2023-10-20T03:22:27.598Z,955.46
2023-10-20T03:23:28.051Z,955.44
2023-10-20T03:24:28.015Z,955.44
2023-10-20T03:25:28.020Z,955.44
2023-10-20T03:26:27.626Z,955.42
2023-10-20T03:27:27.602Z,955.44
2023-10-20T03:28:27.586Z,955.46
2023-10-20T03:29:27.568Z,955.46
2023-10-20T03:30:27.473Z,955.46
2023-10-20T03:31:28.035Z,955.42
2023-10-20T03:32:27.999Z,955.40
2023-10-20T03:33:27.885Z,955.34
2023-10-20T03:34:27.984Z,955.26
2023-10-20T03:35:28.039Z,955.18
2023-10-20T03:36:27.383Z,955.08
2023-10-20T03:37:27.372Z,955.02
2023-10-20T03:38:27.417Z,954.96
2023-10-20T03:39:27.357Z,954.95
2023-10-20T03:40:27.340Z,954.91
2023-10-20T03:41:28.109Z,954.91
2023-10-20T03:42:27.298Z,954.89
2023-10-20T03:43:27.277Z,954.87
2023-10-20T03:44:27.350Z,954.85
2023-10-20T03:45:27.250Z,954.81
2023-10-20T03:46:27.265Z,954.75
2023-10-20T03:47:27.328Z,954.75
2023-10-20T03:48:27.327Z,954.75
2023-10-20T03:49:27.943Z,954.71
2023-10-20T03:50:27.254Z,954.69
2023-10-20T03:51:27.168Z,954.69
2023-10-20T03:52:27.180Z,954.71
2023-10-20T03:53:27.164Z,954.73
2023-10-20T03:54:27.136Z,954.75
2023-10-20T03:55:27.861Z,954.77
2023-10-20T03:56:27.861Z,954.81
2023-10-20T03:57:27.106Z,954.83
2023-10-20T03:58:27.071Z,954.83
2023-10-20T03:59:27.092Z,954.83
2023-10-20T04:00:27.040Z,954.79
2023-10-20T04:01:27.105Z,954.75
2023-10-20T04:02:27.058Z,954.71
2023-10-20T04:03:27.023Z,954.67
2023-10-20T04:04:27.075Z,954.65
2023-10-20T04:05:27.086Z,954.63
2023-10-20T04:06:27.121Z,954.53
2023-10-20T04:07:26.963Z,954.48
2023-10-20T04:08:27.004Z,954.44
2023-10-20T04:09:26.913Z,954.42
2023-10-20T04:10:26.904Z,954.40
2023-10-20T04:11:27.337Z,954.30
2023-10-20T04:12:26.889Z,954.28
2023-10-20T04:13:27.659Z,954.24
2023-10-20T04:14:27.406Z,954.26
2023-10-20T04:15:26.900Z,954.26
2023-10-20T04:16:26.872Z,954.24
2023-10-20T04:17:26.923Z,954.22
2023-10-20T04:18:26.805Z,954.20
2023-10-20T04:19:27.520Z,954.20
2023-10-20T04:20:27.792Z,954.20
2023-10-20T04:21:27.227Z,954.20
2023-10-20T04:22:27.233Z,954.18
2023-10-20T04:23:26.715Z,954.16
2023-10-20T04:24:26.701Z,954.16
2023-10-20T04:25:26.693Z,954.14
2023-10-20T04:26:26.693Z,954.10
2023-10-20T04:27:27.396Z,954.02
2023-10-20T04:28:26.838Z,954.00
2023-10-20T04:29:26.919Z,954.00
2023-10-20T04:30:26.624Z,953.98
2023-10-20T04:31:26.629Z,953.95
2023-10-20T04:32:27.073Z,953.91
2023-10-20T04:33:26.676Z,953.87
2023-10-20T04:34:26.565Z,953.83
2023-10-20T04:35:27.964Z,953.79
2023-10-20T04:36:26.532Z,953.77
2023-10-20T04:37:27.102Z,953.71
2023-10-20T04:38:26.577Z,953.63
2023-10-20T04:39:27.181Z,953.55
2023-10-20T04:40:26.523Z,953.55
2023-10-20T04:41:27.395Z,953.61
2023-10-20T04:42:27.202Z,953.65
2023-10-20T04:43:27.193Z,953.69
2023-10-20T04:44:27.236Z,953.69
2023-10-20T04:45:27.136Z,953.65
2023-10-20T04:46:27.079Z,953.65
2023-10-20T04:47:26.633Z,953.67
2023-10-20T04:48:27.206Z,953.67
2023-10-20T04:49:26.343Z,953.67
2023-10-20T04:50:26.347Z,953.63
2023-10-20T04:51:26.298Z,953.59
2023-10-20T04:52:26.289Z,953.57
2023-10-20T04:53:26.343Z,953.55
2023-10-20T04:54:26.278Z,953.53
2023-10-20T04:55:26.256Z,953.49
2023-10-20T04:56:26.249Z,953.48
2023-10-20T04:57:26.237Z,953.40
2023-10-20T04:58:26.204Z,953.34
2023-10-20T04:59:26.204Z,953.26
2023-10-20T05:00:26.305Z,953.22
2023-10-20T05:01:26.197Z,953.16
2023-10-20T05:02:26.213Z,953.14
2023-10-20T05:03:26.205Z,953.14
2023-10-20T05:04:26.122Z,953.14
2023-10-20T05:05:26.501Z,953.14
2023-10-20T05:06:26.821Z,953.10
2023-10-20T05:07:26.817Z,953.10
2023-10-20T05:08:26.851Z,953.04
2023-10-20T05:09:26.858Z,953.01
2023-10-20T05:10:26.770Z,952.97
2023-10-20T05:11:26.787Z,952.95
2023-10-20T05:12:26.745Z,952.95
2023-10-20T05:13:27.391Z,952.93
2023-10-20T05:14:26.735Z,952.95
2023-10-20T05:15:26.696Z,952.93
2023-10-20T05:16:26.718Z,952.93
2023-10-20T05:17:26.722Z,952.87
2023-10-20T05:18:26.718Z,952.83
2023-10-20T05:19:25.906Z,952.81
2023-10-20T05:20:26.703Z,952.71
2023-10-20T05:21:27.288Z,952.65
2023-10-20T05:22:25.866Z,952.59
2023-10-20T05:23:27.304Z,952.50
2023-10-20T05:24:25.973Z,952.44
2023-10-20T05:25:26.543Z,952.38
2023-10-20T05:26:25.984Z,952.30
2023-10-20T05:27:25.793Z,952.20
2023-10-20T05:28:25.782Z,952.12
2023-10-20T05:29:25.815Z,952.06
2023-10-20T05:30:25.765Z,952.00
2023-10-20T05:31:26.584Z,951.95
2023-10-20T05:32:25.859Z,951.91
2023-10-20T05:33:26.045Z,951.85
2023-10-20T05:34:25.725Z,951.85
2023-10-20T05:35:25.704Z,951.83
2023-10-20T05:36:25.669Z,951.87
2023-10-20T05:37:25.665Z,951.91
2023-10-20T05:38:25.798Z,951.93
2023-10-20T05:39:26.410Z,951.97
2023-10-20T05:40:26.090Z,951.95
2023-10-20T05:41:25.671Z,951.93
2023-10-20T05:42:25.599Z,951.89
2023-10-20T05:43:25.592Z,951.85
2023-10-20T05:44:26.307Z,951.83
2023-10-20T05:45:26.027Z,951.81
2023-10-20T05:46:25.605Z,951.81
2023-10-20T05:47:27.015Z,951.79
2023-10-20T05:48:25.574Z,951.75
2023-10-20T05:49:25.607Z,951.77
2023-10-20T05:50:26.266Z,951.77
2023-10-20T05:51:25.503Z,951.77
2023-10-20T05:52:26.027Z,951.77
2023-10-20T05:53:25.483Z,951.77
2023-10-20T05:54:25.453Z,951.81
2023-10-20T05:55:27.885Z,951.83
2023-10-20T05:56:27.453Z,951.81
2023-10-20T05:57:26.819Z,951.77
2023-10-20T05:58:25.474Z,951.73
2023-10-20T05:59:25.406Z,951.69
2023-10-20T06:00:25.359Z,951.67
2023-10-20T06:01:25.366Z,951.61
2023-10-20T06:02:25.370Z,951.57
2023-10-20T06:03:25.357Z,951.55
2023-10-20T06:04:26.068Z,951.46
2023-10-20T06:05:25.344Z,951.40
2023-10-20T06:06:25.292Z,951.42
2023-10-20T06:07:25.263Z,951.40
2023-10-20T06:08:26.014Z,951.36
2023-10-20T06:09:25.241Z,951.32
2023-10-20T06:10:25.243Z,951.32
2023-10-20T06:11:26.028Z,951.30
2023-10-20T06:12:25.201Z,951.30
2023-10-20T06:13:25.914Z,951.28
2023-10-20T06:14:25.960Z,951.28
2023-10-20T06:15:25.147Z,951.30
2023-10-20T06:16:25.260Z,951.26
2023-10-20T06:17:25.140Z,951.26
2023-10-20T06:18:34.752Z,951.30
2023-10-20T06:19:26.817Z,951.30
2023-10-20T06:20:25.835Z,951.28
2023-10-20T06:21:25.071Z,951.26
2023-10-20T06:22:27.009Z,951.24
2023-10-20T06:23:25.104Z,951.24
2023-10-20T06:24:25.117Z,951.28
2023-10-20T06:25:25.005Z,951.30
2023-10-20T06:26:25.750Z,951.30
2023-10-20T06:27:26.403Z,951.30
2023-10-20T06:28:25.707Z,951.30
2023-10-20T06:29:25.106Z,951.34
2023-10-20T06:30:26.909Z,951.38
2023-10-20T06:31:25.011Z,951.40
2023-10-20T06:32:25.122Z,951.40
2023-10-20T06:33:24.980Z,951.40
2023-10-20T06:34:24.890Z,951.42
2023-10-20T06:35:26.905Z,951.42
2023-10-20T06:36:24.886Z,951.38
2023-10-20T06:37:25.365Z,951.32
2023-10-20T06:38:24.888Z,951.28
2023-10-20T06:39:24.853Z,951.30
2023-10-20T06:40:25.364Z,951.32
2023-10-20T06:41:24.845Z,951.32
2023-10-20T06:42:24.771Z,951.30
2023-10-20T06:43:25.465Z,951.32
2023-10-20T06:44:24.806Z,951.32
2023-10-20T06:45:24.726Z,951.34
2023-10-20T06:46:25.510Z,951.34
2023-10-20T06:47:24.948Z,951.34
2023-10-20T06:48:24.726Z,951.34
2023-10-20T06:49:24.677Z,951.34
2023-10-20T06:50:25.006Z,951.30
2023-10-20T06:51:25.380Z,951.28
2023-10-20T06:52:24.628Z,951.28
2023-10-20T06:53:25.163Z,951.30
2023-10-20T06:54:24.617Z,951.34
2023-10-20T06:55:51.007Z,951.32
2023-10-20T06:56:28.698Z,951.24
2023-10-20T06:57:25.140Z,951.18
2023-10-20T06:58:24.553Z,951.16
2023-10-20T06:59:25.331Z,951.18
2023-10-20T07:00:25.258Z,951.18
2023-10-20T07:01:25.248Z,951.16
2023-10-20T07:02:25.364Z,951.16
2023-10-20T07:03:24.621Z,951.18
2023-10-20T07:04:24.891Z,951.20
2023-10-20T07:05:24.534Z,951.20
2023-10-20T07:06:24.449Z,951.22
2023-10-20T07:07:25.825Z,951.26
2023-10-20T07:08:25.179Z,951.30
2023-10-20T07:09:24.406Z,951.36
2023-10-20T07:10:24.375Z,951.42
2023-10-20T07:11:24.371Z,951.38
2023-10-20T07:12:24.350Z,951.38
2023-10-20T07:13:24.353Z,951.34
2023-10-20T07:14:24.363Z,951.34
2023-10-20T07:15:25.046Z,951.30
2023-10-20T07:16:25.065Z,951.30
2023-10-20T07:17:24.412Z,951.28
2023-10-20T07:18:24.445Z,951.28
2023-10-20T07:19:24.255Z,951.24
2023-10-20T07:20:24.442Z,951.20
2023-10-20T07:21:24.263Z,951.18
2023-10-20T07:22:26.655Z,951.22
2023-10-20T07:23:25.645Z,951.26
2023-10-20T07:24:25.591Z,951.32
2023-10-20T07:25:24.186Z,951.36
2023-10-20T07:26:24.205Z,951.40
2023-10-20T07:27:24.168Z,951.38
2023-10-20T07:28:24.415Z,951.36
2023-10-20T07:29:24.184Z,951.34
2023-10-20T07:30:24.116Z,951.36
2023-10-20T07:31:24.886Z,951.38
2023-10-20T07:32:25.618Z,951.40
2023-10-20T07:33:24.119Z,951.42
2023-10-20T07:34:24.042Z,951.42
2023-10-20T07:35:24.049Z,951.40
2023-10-20T07:36:24.740Z,951.42
2023-10-20T07:37:24.003Z,951.42
2023-10-20T07:38:24.034Z,951.40
2023-10-20T07:39:24.712Z,951.44
2023-10-20T07:40:24.088Z,951.46
2023-10-20T07:41:23.987Z,951.55
2023-10-20T07:42:24.674Z,951.59
2023-10-20T07:43:23.935Z,951.63
2023-10-20T07:44:23.987Z,951.63
2023-10-20T07:45:23.941Z,951.65
2023-10-20T07:46:24.099Z,951.71
2023-10-20T07:47:24.152Z,951.75
2023-10-20T07:48:24.605Z,951.79
2023-10-20T07:49:24.111Z,951.79
2023-10-20T07:50:24.143Z,951.83
2023-10-20T07:51:23.883Z,951.83
2023-10-20T07:52:23.808Z,951.87
2023-10-20T07:53:23.824Z,951.93
2023-10-20T07:54:23.753Z,951.99
2023-10-20T07:55:23.783Z,952.00
2023-10-20T07:56:23.735Z,952.04
2023-10-20T07:57:23.726Z,952.08
2023-10-20T07:58:23.703Z,952.18
2023-10-20T07:59:23.723Z,952.32
2023-10-20T08:00:24.102Z,952.42
2023-10-20T08:01:24.180Z,952.52
2023-10-20T08:02:23.692Z,952.59
2023-10-20T08:03:24.537Z,952.63
2023-10-20T08:04:25.240Z,952.69
2023-10-20T08:05:23.819Z,952.75
2023-10-20T08:06:24.074Z,952.77
2023-10-20T08:07:23.810Z,952.83
2023-10-20T08:08:24.131Z,952.89
2023-10-20T08:09:23.613Z,952.93
2023-10-20T08:10:24.968Z,952.89
2023-10-20T08:11:24.322Z,952.89
2023-10-20T08:12:24.121Z,952.93
2023-10-20T08:13:23.504Z,952.93
2023-10-20T08:14:23.528Z,952.91
2023-10-20T08:15:24.149Z,952.89
2023-10-20T08:16:23.541Z,952.87
2023-10-20T08:17:23.500Z,952.89
2023-10-20T08:18:23.485Z,952.95
2023-10-20T08:19:24.834Z,952.97
2023-10-20T08:20:24.193Z,952.97
2023-10-20T08:21:23.391Z,952.95
2023-10-20T08:22:24.582Z,952.91
2023-10-20T08:23:23.399Z,952.87
2023-10-20T08:24:23.356Z,952.83
2023-10-20T08:25:23.329Z,952.83
2023-10-20T08:26:24.172Z,952.81
2023-10-20T08:27:25.264Z,952.83
2023-10-20T08:28:24.716Z,952.83
2023-10-20T08:29:24.010Z,952.87
2023-10-20T08:30:23.279Z,952.85
2023-10-20T08:31:23.510Z,952.89
2023-10-20T08:32:23.272Z,952.89
2023-10-20T08:33:23.314Z,952.85
2023-10-20T08:34:23.203Z,952.85
2023-10-20T08:35:23.226Z,952.85
2023-10-20T08:36:23.171Z,952.85
2023-10-20T08:37:23.170Z,952.87
2023-10-20T08:38:23.190Z,952.93
2023-10-20T08:39:23.131Z,952.95
2023-10-20T08:40:23.869Z,952.95
2023-10-20T08:41:23.292Z,952.99
2023-10-20T08:42:23.817Z,953.01
2023-10-20T08:43:23.801Z,953.02
2023-10-20T08:44:23.950Z,953.04
2023-10-20T08:45:23.141Z,953.06
2023-10-20T08:46:23.152Z,953.06
2023-10-20T08:47:23.877Z,953.08
2023-10-20T08:48:23.274Z,953.10
2023-10-20T08:49:23.074Z,953.08
2023-10-20T08:50:23.545Z,953.06
2023-10-20T08:51:23.007Z,953.06
2023-10-20T08:52:23.713Z,953.06
2023-10-20T08:53:23.052Z,953.06
2023-10-20T08:54:22.938Z,953.06
2023-10-20T08:55:23.734Z,953.06
2023-10-20T08:56:23.937Z,953.04
2023-10-20T08:57:24.644Z,953.10
2023-10-20T08:58:26.248Z,953.12
2023-10-20T08:59:23.559Z,953.16
2023-10-20T09:00:23.585Z,953.18
2023-10-20T09:01:24.824Z,953.18
2023-10-20T09:02:22.886Z,953.18
2023-10-20T09:03:22.952Z,953.20
2023-10-20T09:04:22.832Z,953.22
2023-10-20T09:05:22.832Z,953.12
2023-10-20T09:06:22.773Z,953.12
2023-10-20T09:07:22.784Z,953.14
2023-10-20T09:08:22.825Z,953.16
2023-10-20T09:09:22.714Z,953.16
2023-10-20T09:10:22.713Z,953.18
2023-10-20T09:11:22.710Z,953.18
2023-10-20T09:12:23.654Z,953.20
2023-10-20T09:13:22.663Z,953.20
2023-10-20T09:14:23.415Z,953.20
2023-10-20T09:15:23.165Z,953.24
2023-10-20T09:16:23.428Z,953.22
2023-10-20T09:17:22.727Z,953.20
2023-10-20T09:18:23.304Z,953.20
2023-10-20T09:19:23.292Z,953.20
2023-10-20T09:20:22.606Z,953.20
2023-10-20T09:21:22.565Z,953.20
2023-10-20T09:22:22.536Z,953.24
2023-10-20T09:23:22.574Z,953.22
2023-10-20T09:24:22.518Z,953.22
2023-10-20T09:25:22.571Z,953.22
2023-10-20T09:26:22.527Z,953.20
2023-10-20T09:27:22.475Z,953.20
2023-10-20T09:28:22.479Z,953.20
2023-10-20T09:29:22.486Z,953.20
2023-10-20T09:30:23.153Z,953.16
2023-10-20T09:31:22.425Z,953.14
2023-10-20T09:32:23.277Z,953.12
2023-10-20T09:33:22.719Z,953.14
2023-10-20T09:34:22.456Z,953.14
2023-10-20T09:35:22.450Z,953.14
2023-10-20T09:36:22.344Z,953.12
2023-10-20T09:37:22.333Z,953.10
2023-10-20T09:38:22.381Z,953.10
2023-10-20T09:39:22.319Z,953.08
2023-10-20T09:40:22.559Z,953.08
2023-10-20T09:41:22.328Z,953.08
2023-10-20T09:42:22.263Z,953.08
2023-10-20T09:43:26.189Z,953.10
2023-10-20T09:44:22.299Z,953.14
2023-10-20T09:45:22.222Z,953.18
2023-10-20T09:46:22.964Z,953.18
2023-10-20T09:47:22.300Z,953.18
2023-10-20T09:48:22.227Z,953.14
2023-10-20T09:49:22.175Z,953.14
2023-10-20T09:50:22.195Z,953.08
2023-10-20T09:51:22.182Z,953.10
2023-10-20T09:52:22.149Z,953.14
2023-10-20T09:53:23.559Z,953.12
2023-10-20T09:54:22.109Z,953.12
2023-10-20T09:55:22.089Z,953.12
2023-10-20T09:56:22.092Z,953.06
2023-10-20T09:57:22.100Z,953.04
2023-10-20T09:58:22.098Z,953.04
2023-10-20T09:59:22.140Z,953.06
2023-10-20T10:00:22.052Z,953.08
2023-10-20T10:01:22.092Z,953.10
2023-10-20T10:02:22.287Z,953.10
2023-10-20T10:03:23.574Z,953.12
2023-10-20T10:04:21.979Z,953.14
2023-10-20T10:05:22.005Z,953.14
2023-10-20T10:06:21.950Z,953.14
2023-10-20T10:07:21.925Z,953.16
2023-10-20T10:08:21.932Z,953.18
2023-10-20T10:09:21.898Z,953.18
2023-10-20T10:10:22.613Z,953.18
2023-10-20T10:11:22.264Z,953.20
2023-10-20T10:12:22.245Z,953.20
2023-10-20T10:13:21.822Z,953.24
2023-10-20T10:14:22.279Z,953.26
2023-10-20T10:15:22.231Z,953.26
2023-10-20T10:16:22.266Z,953.26
2023-10-20T10:17:21.823Z,953.26
2023-10-20T10:18:22.657Z,953.26
2023-10-20T10:19:22.231Z,953.24
2023-10-20T10:20:22.273Z,953.24
2023-10-20T10:21:21.723Z,953.24
2023-10-20T10:22:21.708Z,953.26
2023-10-20T10:23:21.735Z,953.26
2023-10-20T10:24:22.675Z,953.28
2023-10-20T10:25:22.236Z,953.32
2023-10-20T10:26:22.452Z,953.34
2023-10-20T10:27:22.391Z,953.34
2023-10-20T10:28:21.648Z,953.32
2023-10-20T10:29:21.618Z,953.34
2023-10-20T10:30:21.611Z,953.36
2023-10-20T10:31:21.641Z,953.36
2023-10-20T10:32:21.615Z,953.38
2023-10-20T10:33:21.733Z,953.36
2023-10-20T10:34:22.316Z,953.40
2023-10-20T10:35:24.546Z,953.40
2023-10-20T10:36:21.546Z,953.42
2023-10-20T10:37:22.234Z,953.42
2023-10-20T10:38:21.555Z,953.42
2023-10-20T10:39:21.462Z,953.42
2023-10-20T10:40:21.463Z,953.40
2023-10-20T10:41:21.483Z,953.36
2023-10-20T10:42:22.182Z,953.34
2023-10-20T10:43:21.405Z,953.34
2023-10-20T10:44:22.164Z,953.28
2023-10-20T10:45:22.126Z,953.30
2023-10-20T10:46:21.367Z,953.30
2023-10-20T10:47:21.431Z,953.28
2023-10-20T10:48:21.453Z,953.28
2023-10-20T10:49:21.332Z,953.32
2023-10-20T10:50:21.684Z,953.36
2023-10-20T10:51:21.498Z,953.36
2023-10-20T10:52:21.272Z,953.38
2023-10-20T10:53:21.301Z,953.38
2023-10-20T10:54:21.246Z,953.38
2023-10-20T10:55:21.951Z,953.38
2023-10-20T10:56:21.285Z,953.36
2023-10-20T10:57:21.208Z,953.34
2023-10-20T10:58:21.982Z,953.36
2023-10-20T10:59:21.651Z,953.38
2023-10-20T11:00:21.637Z,953.44
2023-10-20T11:01:21.154Z,953.46
2023-10-20T11:02:21.164Z,953.44
2023-10-20T11:03:25.547Z,953.44
2023-10-20T11:04:21.191Z,953.44
2023-10-20T11:05:21.119Z,953.44
2023-10-20T11:06:21.820Z,953.44
2023-10-20T11:07:21.663Z,953.44
2023-10-20T11:08:21.674Z,953.42
2023-10-20T11:09:21.783Z,953.40
2023-10-20T11:10:21.012Z,953.40
2023-10-20T11:11:21.683Z,953.34
2023-10-20T11:12:20.991Z,953.34
2023-10-20T11:13:22.086Z,953.34
2023-10-20T11:14:22.552Z,953.36
2023-10-20T11:15:23.218Z,953.42
2023-10-20T11:16:24.207Z,953.42
2023-10-20T11:17:21.732Z,953.42
2023-10-20T11:18:20.961Z,953.42
2023-10-20T11:19:21.646Z,953.44
2023-10-20T11:20:20.896Z,953.44
2023-10-20T11:21:20.942Z,953.42
2023-10-20T11:22:22.308Z,953.44
2023-10-20T11:23:21.605Z,953.49
2023-10-20T11:24:21.564Z,953.46
2023-10-20T11:25:20.952Z,953.46
2023-10-20T11:26:20.905Z,953.48
2023-10-20T11:27:22.203Z,953.44
2023-10-20T11:28:20.793Z,953.48
2023-10-20T11:29:21.091Z,953.48
2023-10-20T11:30:22.192Z,953.51
2023-10-20T11:31:21.538Z,953.48
2023-10-20T11:32:20.774Z,953.53
2023-10-20T11:33:21.189Z,953.55
2023-10-20T11:34:20.704Z,953.59
2023-10-20T11:35:22.119Z,953.65
2023-10-20T11:36:20.656Z,953.73
2023-10-20T11:37:21.442Z,953.75
2023-10-20T11:38:21.436Z,953.79
2023-10-20T11:39:21.365Z,953.91
2023-10-20T11:40:20.619Z,953.98
2023-10-20T11:41:20.627Z,954.00
2023-10-20T11:42:20.588Z,954.00
2023-10-20T11:43:21.299Z,954.10
2023-10-20T11:44:20.724Z,954.16
2023-10-20T11:45:20.542Z,954.22
2023-10-20T11:46:21.294Z,954.20
2023-10-20T11:47:21.950Z,954.24
2023-10-20T11:48:20.593Z,954.26
2023-10-20T11:49:21.231Z,954.30
2023-10-20T11:50:20.834Z,954.32
2023-10-20T11:51:21.264Z,954.34
2023-10-20T11:52:20.483Z,954.38
2023-10-20T11:53:20.503Z,954.34
2023-10-20T11:54:21.173Z,954.36
2023-10-20T11:55:22.377Z,954.42
2023-10-20T11:56:21.195Z,954.44
2023-10-20T11:57:20.400Z,954.49
2023-10-20T11:58:20.361Z,954.48
2023-10-20T11:59:21.225Z,954.51
2023-10-20T12:00:20.345Z,954.51
2023-10-20T12:01:20.421Z,954.55
2023-10-20T12:02:24.071Z,954.55
2023-10-20T12:03:21.158Z,954.59
2023-10-20T12:04:20.344Z,954.63
2023-10-20T12:05:20.369Z,954.61
2023-10-20T12:06:20.278Z,954.59
2023-10-20T12:07:20.333Z,954.63
2023-10-20T12:08:20.266Z,954.65
2023-10-20T12:09:20.221Z,954.67
2023-10-20T12:10:20.257Z,954.67
2023-10-20T12:11:21.639Z,954.67
2023-10-20T12:12:20.190Z,954.69
2023-10-20T12:13:20.177Z,954.77
2023-10-20T12:14:20.893Z,954.81
2023-10-20T12:15:20.452Z,954.85
2023-10-20T12:16:20.165Z,954.89
2023-10-20T12:17:20.135Z,954.91
2023-10-20T12:18:21.647Z,954.89
2023-10-20T12:19:20.352Z,954.89
2023-10-20T12:20:20.142Z,954.87
2023-10-20T12:21:20.069Z,954.87
2023-10-20T12:22:20.040Z,954.95
2023-10-20T12:23:20.371Z,955.00
2023-10-20T12:24:20.356Z,955.02
2023-10-20T12:25:20.066Z,955.10
2023-10-20T12:26:20.005Z,955.10
2023-10-20T12:27:20.348Z,955.14
2023-10-20T12:28:20.761Z,955.16